createdAt,value
2019-01-28T00:02:16.658Z,98879.30
2019-01-28T00:04:46.098Z,98878.50
2019-01-28T00:07:14.629Z,98874.97
2019-01-28T00:09:43.045Z,98878.84
2019-01-28T00:12:11.571Z,98875.56
2019-01-28T00:14:40.906Z,98872.23
2019-01-28T00:17:10.230Z,98881.64
2019-01-28T00:19:39.545Z,98883.85
2019-01-28T00:22:07.980Z,98884.80
2019-01-28T00:24:36.403Z,98893.66
2019-01-28T00:27:05.149Z,98896.84
2019-01-28T00:29:34.480Z,98893.54
2019-01-28T00:32:03.925Z,98904.23
2019-01-28T00:34:33.264Z,98901.73
2019-01-28T00:37:02.590Z,98902.25
2019-01-28T00:39:31.914Z,98911.53
2019-01-28T00:42:00.335Z,98910.30
2019-01-28T00:44:29.650Z,98908.74
2019-01-28T00:46:59.093Z,98905.53
2019-01-28T00:49:28.417Z,98900.84
2019-01-28T00:51:57.048Z,98895.61
2019-01-28T00:54:25.497Z,98890.41
2019-01-28T00:56:54.810Z,98875.41
2019-01-28T00:59:24.132Z,98867.76
2019-01-28T01:01:53.466Z,98872.64
2019-01-28T01:04:22.796Z,98869.48
2019-01-28T01:06:52.134Z,98862.53
2019-01-28T01:09:21.459Z,98859.69
2019-01-28T01:11:50.775Z,98850.86
2019-01-28T01:14:19.287Z,98849.34
2019-01-28T01:16:47.812Z,98852.64
2019-01-28T01:19:16.332Z,98840.97
2019-01-28T01:21:45.651Z,98846.12
2019-01-28T01:24:14.959Z,98849.42
2019-01-28T01:26:44.286Z,98851.88
2019-01-28T01:29:13.599Z,98854.05
2019-01-28T01:31:42.931Z,98843.13
2019-01-28T01:34:12.251Z,98835.48
2019-01-28T01:36:41.582Z,98844.63
2019-01-28T01:39:10.025Z,98845.80
2019-01-28T01:41:39.423Z,98833.41
2019-01-28T01:44:08.736Z,98840.66
2019-01-28T01:46:38.161Z,98841.77
2019-01-28T01:49:06.586Z,98831.39
2019-01-28T01:51:35.906Z,98823.95
2019-01-28T01:54:05.229Z,98814.22
2019-01-28T01:56:34.601Z,98817.28
2019-01-28T01:59:03.443Z,98816.44
2019-01-28T02:01:32.083Z,98823.90
2019-01-28T02:04:00.521Z,98823.95
2019-01-28T02:06:29.862Z,98827.75
2019-01-28T02:08:59.194Z,98832.92
2019-01-28T02:11:27.609Z,98840.80
2019-01-28T02:13:56.936Z,98836.44
2019-01-28T02:16:25.373Z,98831.38
2019-01-28T02:18:54.694Z,98833.13
2019-01-28T02:21:23.224Z,98828.39
2019-01-28T02:23:52.567Z,98831.87
2019-01-28T02:26:21.210Z,98827.30
2019-01-28T02:28:50.562Z,98831.62
2019-01-28T02:31:19.876Z,98832.52
2019-01-28T02:33:49.194Z,98827.71
2019-01-28T02:36:18.527Z,98831.13
2019-01-28T02:38:47.846Z,98826.19
2019-01-28T02:41:17.176Z,98826.11
2019-01-28T02:43:46.522Z,98831.97
2019-01-28T02:46:15.034Z,98840.53
2019-01-28T02:48:43.453Z,98839.28
2019-01-28T02:51:11.988Z,98834.91
2019-01-28T02:53:41.302Z,98823.38
2019-01-28T02:56:10.636Z,98818.13
2019-01-28T02:58:39.971Z,98811.13
2019-01-28T03:01:09.294Z,98812.09
2019-01-28T03:03:38.620Z,98815.79
2019-01-28T03:06:07.058Z,98810.75
2019-01-28T03:08:36.399Z,98812.52
2019-01-28T03:11:05.810Z,98809.00
2019-01-28T03:13:34.339Z,98810.22
2019-01-28T03:16:03.773Z,98809.37
2019-01-28T03:18:33.104Z,98808.25
2019-01-28T03:21:02.486Z,98803.94
2019-01-28T03:23:31.802Z,98810.25
2019-01-28T03:26:01.123Z,98805.47
2019-01-28T03:28:29.645Z,98803.24
2019-01-28T03:30:58.186Z,98799.56
2019-01-28T03:33:26.607Z,98791.50
2019-01-28T03:35:55.941Z,98796.95
2019-01-28T03:38:25.284Z,98805.52
2019-01-28T03:40:54.622Z,98799.89
2019-01-28T03:43:23.935Z,98802.41
2019-01-28T03:45:52.481Z,98799.59
2019-01-28T03:48:21.799Z,98795.33
2019-01-28T03:50:51.137Z,98789.84
2019-01-28T03:53:19.717Z,98779.43
2019-01-28T03:55:48.275Z,98779.62
2019-01-28T03:58:17.602Z,98791.84
2019-01-28T04:00:46.025Z,98786.11
2019-01-28T04:03:15.347Z,98787.77
2019-01-28T04:05:43.905Z,98781.95
2019-01-28T04:08:13.236Z,98791.26
2019-01-28T04:10:42.555Z,98794.58
2019-01-28T04:13:11.193Z,98798.16
2019-01-28T04:15:40.618Z,98791.36
2019-01-28T04:18:09.254Z,98784.59
2019-01-28T04:20:37.776Z,98791.44
2019-01-28T04:23:07.135Z,98789.42
2019-01-28T04:25:36.527Z,98788.65
2019-01-28T04:28:05.840Z,98779.34
2019-01-28T04:30:35.160Z,98778.66
2019-01-28T04:33:04.490Z,98776.05
2019-01-28T04:35:33.817Z,98780.70
2019-01-28T04:38:02.353Z,98776.61
2019-01-28T04:40:30.882Z,98773.35
2019-01-28T04:43:00.208Z,98770.08
2019-01-28T04:45:29.528Z,98774.55
2019-01-28T04:47:58.869Z,98776.70
2019-01-28T04:50:27.377Z,98769.55
2019-01-28T04:52:55.904Z,98772.77
2019-01-28T04:55:24.430Z,98775.30
2019-01-28T04:57:52.967Z,98775.28
2019-01-28T05:00:23.803Z,98769.03
2019-01-28T05:05:56.697Z,98775.67
2019-01-28T05:08:26.021Z,98779.68
2019-01-28T05:10:54.546Z,98777.60
2019-01-28T05:13:22.974Z,98779.23
2019-01-28T05:15:52.316Z,98776.95
2019-01-28T05:18:21.640Z,98781.59
2019-01-28T05:20:50.968Z,98780.02
2019-01-28T05:23:20.297Z,98782.72
2019-01-28T05:25:49.624Z,98781.80
2019-01-28T05:28:18.085Z,98781.80
2019-01-28T05:30:46.521Z,98787.39
2019-01-28T05:33:15.840Z,98774.16
2019-01-28T05:35:44.262Z,98773.78
2019-01-28T05:38:13.685Z,98774.44
2019-01-28T05:40:43.022Z,98769.77
2019-01-28T05:43:12.451Z,98763.12
2019-01-28T05:45:41.772Z,98748.66
2019-01-28T05:48:11.109Z,98745.12
2019-01-28T05:50:40.448Z,98749.73
2019-01-28T05:53:09.850Z,98750.43
2019-01-28T05:55:39.175Z,98759.75
2019-01-28T05:58:07.698Z,98750.33
2019-01-28T06:00:40.044Z,98757.26
2019-01-28T06:03:08.663Z,98761.17
2019-01-28T06:05:37.102Z,98773.40
2019-01-28T06:08:06.432Z,98766.42
2019-01-28T06:10:35.763Z,98775.55
2019-01-28T06:13:05.177Z,98772.28
2019-01-28T06:15:34.509Z,98772.09
2019-01-28T06:21:06.021Z,98773.00
2019-01-28T06:23:35.497Z,98779.13
2019-01-28T06:26:04.914Z,98783.28
2019-01-28T06:28:34.249Z,98783.44
2019-01-28T06:31:03.741Z,98775.61
2019-01-28T06:33:33.075Z,98768.33
2019-01-28T06:36:02.505Z,98778.28
2019-01-28T06:38:31.132Z,98771.88
2019-01-28T06:40:59.747Z,98769.09
2019-01-28T06:43:29.076Z,98760.72
2019-01-28T06:45:58.417Z,98764.42
2019-01-28T06:48:28.166Z,98775.86
2019-01-28T06:50:57.529Z,98775.52
2019-01-28T06:53:26.857Z,98775.11
2019-01-28T06:55:56.175Z,98780.87
2019-01-28T06:58:25.534Z,98788.83
2019-01-28T07:00:54.878Z,98780.52
2019-01-28T07:03:23.407Z,98781.28
2019-01-28T07:05:51.970Z,98780.09
2019-01-28T07:08:20.403Z,98771.92
2019-01-28T07:10:48.947Z,98775.30
2019-01-28T07:13:18.412Z,98777.80
2019-01-28T07:15:47.008Z,98774.16
2019-01-28T07:18:15.553Z,98766.71
2019-01-28T07:20:44.870Z,98766.80
2019-01-28T07:23:13.350Z,98764.25
2019-01-28T07:25:41.777Z,98780.53
2019-01-28T07:28:11.148Z,98784.23
2019-01-28T07:30:40.512Z,98787.51
2019-01-28T07:33:10.007Z,98782.82
2019-01-28T07:35:38.530Z,98785.22
2019-01-28T07:38:07.860Z,98788.27
2019-01-28T07:40:37.186Z,98780.34
2019-01-28T07:43:06.599Z,98780.21
2019-01-28T07:45:45.055Z,98780.21
2019-01-28T07:48:27.038Z,98782.06
2019-01-28T07:50:57.109Z,98771.41
2019-01-28T07:53:26.596Z,98776.70
2019-01-28T07:55:55.032Z,98779.14
2019-01-28T07:58:23.895Z,98785.31
2019-01-28T08:00:52.414Z,98777.94
2019-01-28T08:03:21.755Z,98772.91
2019-01-28T08:05:51.101Z,98770.08
2019-01-28T08:08:19.621Z,98775.00
2019-01-28T08:10:48.967Z,98774.27
2019-01-28T08:13:17.470Z,98776.28
2019-01-28T08:15:46.091Z,98781.73
2019-01-28T08:18:15.406Z,98783.38
2019-01-28T08:20:44.745Z,98787.91
2019-01-28T08:23:14.108Z,98795.46
2019-01-28T08:25:43.442Z,98794.80
2019-01-28T08:28:12.882Z,98798.78
2019-01-28T08:30:42.216Z,98794.11
2019-01-28T08:33:11.549Z,98795.01
2019-01-28T08:35:40.972Z,98800.20
2019-01-28T08:38:10.426Z,98808.08
2019-01-28T08:40:38.852Z,98806.09
2019-01-28T08:43:07.296Z,98810.19
2019-01-28T08:45:35.850Z,98810.30
2019-01-28T08:48:05.180Z,98806.55
2019-01-28T08:50:34.641Z,98804.04
2019-01-28T08:53:04.260Z,98807.83
2019-01-28T08:55:33.796Z,98801.08
2019-01-28T08:58:03.334Z,98795.25
2019-01-28T09:00:40.430Z,98794.66
2019-01-28T09:03:08.929Z,98787.91
2019-01-28T09:08:40.861Z,98787.88
2019-01-28T09:11:09.312Z,98791.88
2019-01-28T09:13:38.650Z,98785.66
2019-01-28T09:16:08.098Z,98786.06
2019-01-28T09:18:37.423Z,98782.16
2019-01-28T09:21:06.757Z,98779.08
2019-01-28T09:23:36.070Z,98778.28
2019-01-28T09:26:06.604Z,98779.38
2019-01-28T09:28:54.807Z,98768.21
2019-01-28T09:31:24.136Z,98766.59
2019-01-28T09:33:52.562Z,98767.76
2019-01-28T09:36:21.088Z,98760.60
2019-01-28T09:38:50.418Z,98760.59
2019-01-28T09:41:19.751Z,98760.52
2019-01-28T09:43:49.072Z,98757.84
2019-01-28T09:46:18.510Z,98748.50
2019-01-28T09:48:47.861Z,98737.13
2019-01-28T09:51:17.193Z,98735.78
2019-01-28T09:53:45.732Z,98740.28
2019-01-28T09:56:15.166Z,98732.56
2019-01-28T09:58:43.784Z,98734.39
2019-01-28T10:01:12.334Z,98725.75
2019-01-28T10:03:41.665Z,98729.16
2019-01-28T10:06:11.002Z,98714.36
2019-01-28T10:08:40.332Z,98703.88
2019-01-28T10:11:09.664Z,98700.37
2019-01-28T10:13:38.995Z,98692.45
2019-01-28T10:16:08.325Z,98687.91
2019-01-28T10:18:41.942Z,98674.42
2019-01-28T10:21:26.886Z,98671.59
2019-01-28T10:23:55.325Z,98660.88
2019-01-28T10:26:24.647Z,98662.78
2019-01-28T10:28:54.031Z,98647.78
2019-01-28T10:31:23.369Z,98640.70
2019-01-28T10:33:52.747Z,98641.67
2019-01-28T10:36:22.771Z,98639.84
2019-01-28T10:39:12.197Z,98635.02
2019-01-28T10:41:39.737Z,98634.20
2019-01-28T10:44:10.355Z,98625.89
2019-01-28T10:46:38.708Z,98624.58
2019-01-28T10:49:07.125Z,98622.23
2019-01-28T10:51:36.485Z,98618.02
2019-01-28T10:54:06.000Z,98615.39
2019-01-28T10:56:34.543Z,98609.47
2019-01-28T10:59:04.523Z,98581.95
2019-01-28T11:01:34.667Z,98591.45
2019-01-28T11:07:08.974Z,98578.43
2019-01-28T11:09:38.352Z,98572.38
2019-01-28T11:12:07.884Z,98572.61
2019-01-28T11:14:36.401Z,98572.45
2019-01-28T11:17:05.943Z,98561.01
2019-01-28T11:19:34.808Z,98559.19
2019-01-28T11:25:09.707Z,98555.59
2019-01-28T11:27:39.143Z,98548.33
2019-01-28T11:30:49.066Z,98549.06
2019-01-28T11:33:18.679Z,98550.92
2019-01-28T11:38:49.959Z,98542.09
2019-01-28T11:41:19.379Z,98552.70
2019-01-28T11:43:48.847Z,98547.27
2019-01-28T11:46:17.445Z,98546.72
2019-01-28T11:48:46.968Z,98541.38
2019-01-28T11:51:16.447Z,98545.30
2019-01-28T11:53:45.808Z,98544.56
2019-01-28T11:56:15.123Z,98538.11
2019-01-28T11:58:43.673Z,98545.97
2019-01-28T12:01:32.488Z,98537.62
2019-01-28T12:04:00.914Z,98548.33
2019-01-28T12:06:29.671Z,98542.80
2019-01-28T12:08:59.063Z,98552.91
2019-01-28T12:11:28.602Z,98554.11
2019-01-28T12:13:57.943Z,98547.48
2019-01-28T12:16:27.307Z,98549.08
2019-01-28T12:18:55.846Z,98547.27
2019-01-28T12:21:24.484Z,98554.85
2019-01-28T12:23:53.014Z,98544.65
2019-01-28T12:26:22.340Z,98540.55
2019-01-28T12:28:51.783Z,98534.27
2019-01-28T12:31:21.130Z,98530.16
2019-01-28T12:33:50.475Z,98533.91
2019-01-28T12:36:19.791Z,98539.97
2019-01-28T12:38:48.332Z,98533.23
2019-01-28T12:41:17.798Z,98538.20
2019-01-28T12:43:47.206Z,98534.94
2019-01-28T12:46:15.843Z,98536.05
2019-01-28T12:48:44.380Z,98536.15
2019-01-28T12:51:13.763Z,98529.13
2019-01-28T12:53:43.191Z,98525.54
2019-01-28T12:56:12.521Z,98530.44
2019-01-28T12:58:41.838Z,98531.36
2019-01-28T13:01:11.183Z,98527.04
2019-01-28T13:03:40.532Z,98525.09
2019-01-28T13:06:09.974Z,98524.80
2019-01-28T13:08:39.340Z,98531.33
2019-01-28T13:11:08.678Z,98527.72
2019-01-28T13:13:41.061Z,98531.75
2019-01-28T13:16:26.451Z,98529.66
2019-01-28T13:18:55.779Z,98533.06
2019-01-28T13:21:25.132Z,98534.16
2019-01-28T13:23:54.460Z,98533.06
2019-01-28T13:26:23.793Z,98533.14
2019-01-28T13:28:53.134Z,98532.39
2019-01-28T13:31:22.476Z,98536.22
2019-01-28T13:33:51.796Z,98527.99
2019-01-28T13:36:20.955Z,98540.08
2019-01-28T13:38:50.390Z,98533.23
2019-01-28T13:41:19.722Z,98535.19
2019-01-28T13:43:49.070Z,98529.59
2019-01-28T13:46:18.488Z,98538.95
2019-01-28T13:48:47.817Z,98537.73
2019-01-28T13:51:17.292Z,98536.78
2019-01-28T13:53:46.633Z,98540.81
2019-01-28T13:56:15.968Z,98530.68
2019-01-28T13:58:45.299Z,98531.64
2019-01-28T14:01:14.633Z,98524.61
2019-01-28T14:03:43.975Z,98520.20
2019-01-28T14:06:13.305Z,98518.52
2019-01-28T14:08:42.240Z,98522.82
2019-01-28T14:11:11.400Z,98525.92
2019-01-28T14:13:40.772Z,98516.66
2019-01-28T14:18:50.856Z,98515.34
2019-01-28T14:21:20.251Z,98516.26
2019-01-28T14:23:49.554Z,98514.86
2019-01-28T14:26:18.887Z,98510.88
2019-01-28T14:28:48.213Z,98512.96
2019-01-28T14:31:17.576Z,98508.25
2019-01-28T14:33:46.912Z,98515.31
2019-01-28T14:36:16.247Z,98523.45
2019-01-28T14:38:44.912Z,98520.98
2019-01-28T14:41:14.039Z,98529.14
2019-01-28T14:43:43.367Z,98520.88
2019-01-28T14:46:12.720Z,98517.41
2019-01-28T14:48:49.038Z,98519.70
2019-01-28T14:51:31.405Z,98523.95
2019-01-28T14:54:00.540Z,98518.05
2019-01-28T14:56:29.995Z,98511.23
2019-01-28T14:58:59.327Z,98529.09
2019-01-28T15:01:28.661Z,98520.27
2019-01-28T15:03:57.988Z,98518.73
2019-01-28T15:06:27.349Z,98524.13
2019-01-28T15:08:55.978Z,98524.37
2019-01-28T15:11:25.515Z,98528.45
2019-01-28T15:13:54.551Z,98523.06
2019-01-28T15:16:23.900Z,98523.33
2019-01-28T15:18:53.236Z,98520.90
2019-01-28T15:21:22.572Z,98526.16
2019-01-28T15:23:51.921Z,98525.08
2019-01-28T15:26:21.029Z,98509.72
2019-01-28T15:28:49.802Z,98517.53
2019-01-28T15:31:19.248Z,98518.97
2019-01-28T15:33:48.570Z,98520.41
2019-01-28T15:36:17.401Z,98522.25
2019-01-28T15:38:46.743Z,98525.88
2019-01-28T15:41:15.375Z,98523.33
2019-01-28T15:43:44.812Z,98520.74
2019-01-28T15:46:14.251Z,98529.12
2019-01-28T15:48:43.612Z,98525.52
2019-01-28T15:51:12.925Z,98533.50
2019-01-28T15:53:41.575Z,98524.30
2019-01-28T15:56:10.897Z,98531.51
2019-01-28T15:58:40.275Z,98529.05
2019-01-28T16:01:09.613Z,98529.58
2019-01-28T16:03:38.967Z,98534.70
2019-01-28T16:06:07.808Z,98535.59
2019-01-28T16:08:37.302Z,98530.59
2019-01-28T16:11:06.620Z,98526.86
2019-01-28T16:13:35.951Z,98524.20
2019-01-28T16:16:05.388Z,98521.56
2019-01-28T16:18:34.975Z,98524.27
2019-01-28T16:21:24.089Z,98519.89
2019-01-28T16:23:53.457Z,98513.91
2019-01-28T16:26:22.783Z,98519.01
2019-01-28T16:28:51.347Z,98515.59
2019-01-28T16:31:20.330Z,98521.29
2019-01-28T16:33:48.851Z,98507.72
2019-01-28T16:36:18.178Z,98508.99
2019-01-28T16:38:47.497Z,98502.46
2019-01-28T16:41:16.859Z,98497.52
2019-01-28T16:43:46.181Z,98498.66
2019-01-28T16:46:14.714Z,98496.41
2019-01-28T16:48:44.041Z,98501.70
2019-01-28T16:51:13.395Z,98502.91
2019-01-28T16:53:42.015Z,98503.09
2019-01-28T16:56:11.341Z,98503.09
2019-01-28T16:58:40.772Z,98507.69
2019-01-28T17:01:09.412Z,98503.27
2019-01-28T17:03:38.746Z,98499.41
2019-01-28T17:06:08.176Z,98503.11
2019-01-28T17:08:37.501Z,98488.45
2019-01-28T17:11:06.837Z,98490.55
2019-01-28T17:13:36.167Z,98487.52
2019-01-28T17:16:05.009Z,98486.39
2019-01-28T17:18:33.461Z,98482.75
2019-01-28T17:21:01.904Z,98481.34
2019-01-28T17:23:31.348Z,98482.86
2019-01-28T17:26:00.681Z,98480.06
2019-01-28T17:28:30.015Z,98475.74
2019-01-28T17:30:59.348Z,98470.42
2019-01-28T17:33:28.669Z,98471.73
2019-01-28T17:35:58.014Z,98472.93
2019-01-28T17:38:27.344Z,98482.67
2019-01-28T17:40:56.702Z,98474.64
2019-01-28T17:43:26.046Z,98477.33
2019-01-28T17:45:54.779Z,98483.60
2019-01-28T17:48:24.102Z,98486.61
2019-01-28T17:50:53.540Z,98481.94
2019-01-28T17:53:22.861Z,98482.11
2019-01-28T17:55:52.211Z,98481.44
2019-01-28T17:58:21.544Z,98481.54
2019-01-28T18:00:53.642Z,98482.48
2019-01-28T18:03:23.071Z,98478.17
2019-01-28T18:05:52.403Z,98474.05
2019-01-28T18:08:21.582Z,98476.11
2019-01-28T18:10:50.317Z,98472.45
2019-01-28T18:13:19.662Z,98471.05
2019-01-28T18:15:48.516Z,98477.44
2019-01-28T18:18:16.954Z,98476.48
2019-01-28T18:20:51.648Z,98483.23
2019-01-28T18:23:54.721Z,98486.22
2019-01-28T18:26:24.056Z,98498.59
2019-01-28T18:28:53.397Z,98499.16
2019-01-28T18:31:22.851Z,98509.64
2019-01-28T18:33:52.180Z,98513.40
2019-01-28T18:36:20.622Z,98509.08
2019-01-28T18:38:49.979Z,98515.45
2019-01-28T18:41:18.490Z,98514.31
2019-01-28T18:43:47.828Z,98510.38
2019-01-28T18:46:17.151Z,98520.48
2019-01-28T18:48:46.671Z,98512.44
2019-01-28T18:51:16.146Z,98512.62
2019-01-28T18:53:45.430Z,98508.90
2019-01-28T18:56:14.775Z,98516.84
2019-01-28T18:58:44.115Z,98518.89
2019-01-28T19:01:13.435Z,98512.27
2019-01-28T19:03:42.787Z,98512.83
2019-01-28T19:06:31.580Z,98510.84
2019-01-28T19:09:19.671Z,98512.91
2019-01-28T19:12:08.918Z,98511.13
2019-01-28T19:14:45.166Z,98514.14
2019-01-28T19:17:33.948Z,98505.81
2019-01-28T19:23:05.242Z,98504.01
2019-01-28T19:25:34.586Z,98505.14
2019-01-28T19:28:04.123Z,98513.30
2019-01-28T19:30:32.765Z,98516.20
2019-01-28T19:33:02.205Z,98516.59
2019-01-28T19:35:31.583Z,98526.58
2019-01-28T19:38:00.907Z,98529.31
2019-01-28T19:40:30.255Z,98523.96
2019-01-28T19:42:59.577Z,98538.09
2019-01-28T19:45:40.248Z,98537.17
2019-01-28T19:48:08.870Z,98538.59
2019-01-28T19:50:38.300Z,98536.89
2019-01-28T19:53:07.628Z,98540.04
2019-01-28T19:55:36.962Z,98544.19
2019-01-28T19:58:05.433Z,98542.81
2019-01-28T20:00:34.773Z,98552.34
2019-01-28T20:03:06.607Z,98551.98
2019-01-28T20:05:35.351Z,98549.16
2019-01-28T20:08:25.160Z,98552.45
2019-01-28T20:10:54.572Z,98558.55
2019-01-28T20:13:23.958Z,98559.75
2019-01-28T20:15:53.333Z,98560.95
2019-01-28T20:18:22.402Z,98569.10
2019-01-28T20:20:51.944Z,98572.39
2019-01-28T20:23:21.297Z,98569.95
2019-01-28T20:25:50.456Z,98575.36
2019-01-28T20:28:19.833Z,98575.00
2019-01-28T20:30:48.386Z,98578.27
2019-01-28T20:33:16.936Z,98589.13
2019-01-28T20:35:46.280Z,98586.27
2019-01-28T20:38:16.104Z,98590.87
2019-01-28T20:41:04.835Z,98590.47
2019-01-28T20:43:34.179Z,98593.64
2019-01-28T20:46:15.068Z,98589.77
2019-01-28T20:48:43.719Z,98586.89
2019-01-28T20:51:13.126Z,98591.94
2019-01-28T20:53:42.447Z,98597.19
2019-01-28T20:56:11.797Z,98601.13
2019-01-28T20:58:41.139Z,98597.02
2019-01-28T21:01:09.773Z,98594.41
2019-01-28T21:03:39.107Z,98588.31
2019-01-28T21:06:08.636Z,98583.17
2019-01-28T21:08:38.089Z,98582.27
2019-01-28T21:11:07.555Z,98586.09
2019-01-28T21:13:37.020Z,98589.47
2019-01-28T21:16:06.433Z,98587.77
2019-01-28T21:18:35.801Z,98589.08
2019-01-28T21:21:05.228Z,98584.61
2019-01-28T21:23:33.863Z,98587.31
2019-01-28T21:26:02.300Z,98593.40
2019-01-28T21:28:30.832Z,98587.31
2019-01-28T21:31:00.217Z,98583.75
2019-01-28T21:33:28.755Z,98585.25
2019-01-28T21:36:14.942Z,98583.94
2019-01-28T21:38:46.552Z,98588.70
2019-01-28T21:41:15.874Z,98591.32
2019-01-28T21:43:44.707Z,98596.39
2019-01-28T21:46:13.533Z,98594.81
2019-01-28T21:48:42.874Z,98593.58
2019-01-28T21:51:12.308Z,98602.69
2019-01-28T21:53:40.849Z,98599.51
2019-01-28T21:56:09.279Z,98592.28
2019-01-28T21:58:38.599Z,98593.59
2019-01-28T22:01:29.099Z,98591.25
2019-01-28T22:03:58.436Z,98590.44
2019-01-28T22:06:27.762Z,98583.32
2019-01-28T22:08:57.113Z,98585.25
2019-01-28T22:11:28.090Z,98584.05
2019-01-28T22:13:56.881Z,98595.39
2019-01-28T22:16:26.229Z,98593.58
2019-01-28T22:18:54.765Z,98592.09
2019-01-28T22:21:23.214Z,98594.70
2019-01-28T22:23:52.538Z,98594.52
2019-01-28T22:26:21.867Z,98592.53
2019-01-28T22:28:50.395Z,98593.67
2019-01-28T22:31:19.869Z,98600.22
2019-01-28T22:33:49.204Z,98589.45
2019-01-28T22:36:18.546Z,98588.60
2019-01-28T22:38:47.855Z,98587.46
2019-01-28T22:41:16.716Z,98586.64
2019-01-28T22:43:45.361Z,98587.27
2019-01-28T22:46:14.002Z,98587.09
2019-01-28T22:48:43.297Z,98591.27
2019-01-28T22:51:12.627Z,98591.72
2019-01-28T22:53:42.052Z,98587.81
2019-01-28T22:56:11.388Z,98583.17
2019-01-28T22:58:39.913Z,98583.07
2019-01-28T23:04:13.039Z,98585.19
2019-01-28T23:06:42.375Z,98581.14
2019-01-28T23:09:11.726Z,98582.64
2019-01-28T23:14:36.248Z,98581.70
2019-01-28T23:17:05.594Z,98576.27
2019-01-28T23:19:34.915Z,98585.94
2019-01-28T23:22:04.459Z,98587.27
2019-01-28T23:24:33.776Z,98590.17
2019-01-28T23:27:14.846Z,98586.52
2019-01-28T23:29:43.390Z,98591.48
2019-01-28T23:32:24.292Z,98584.35
2019-01-28T23:34:53.036Z,98590.44
2019-01-28T23:37:22.388Z,98586.22
2019-01-28T23:39:51.720Z,98581.31
2019-01-28T23:42:20.158Z,98580.30
2019-01-28T23:44:48.687Z,98577.27
2019-01-28T23:47:17.246Z,98585.70
2019-01-28T23:49:46.606Z,98596.48
2019-01-28T23:52:24.507Z,98590.31
2019-01-28T23:54:46.465Z,98592.38
2019-01-28T23:57:15.807Z,98593.13
2019-01-28T23:59:44.345Z,98599.69
